sensor_id;sensor_type;location;lat;lon;timestamp;temperature;humidity
7516;DHT22;3799;47.184;8.538;2022-10-31T00:00:46;12.20;99.90
7516;DHT22;3799;47.184;8.538;2022-10-31T00:03:13;12.00;99.90
7516;DHT22;3799;47.184;8.538;2022-10-31T00:05:42;12.10;99.90
7516;DHT22;3799;47.184;8.538;2022-10-31T00:08:08;12.10;99.90
7516;DHT22;3799;47.184;8.538;2022-10-31T00:10:36;11.90;99.90
7516;DHT22;3799;47.184;8.538;2022-10-31T00:13:02;12.00;99.90
7516;DHT22;3799;47.184;8.538;2022-10-31T00:15:27;11.80;99.90
7516;DHT22;3799;47.184;8.538;2022-10-31T00:17:53;12.00;99.90
7516;DHT22;3799;47.184;8.538;2022-10-31T00:20:22;11.90;99.90
7516;DHT22;3799;47.184;8.538;2022-10-31T00:22:48;12.10;99.90
7516;DHT22;3799;47.184;8.538;2022-10-31T00:25:13;11.80;99.90
7516;DHT22;3799;47.184;8.538;2022-10-31T00:27:42;12.00;99.90
7516;DHT22;3799;47.184;8.538;2022-10-31T00:30:08;11.70;99.90
7516;DHT22;3799;47.184;8.538;2022-10-31T00:32:34;11.90;99.90
7516;DHT22;3799;47.184;8.538;2022-10-31T00:35:00;11.90;99.90
7516;DHT22;3799;47.184;8.538;2022-10-31T00:37:26;12.00;99.90
7516;DHT22;3799;47.184;8.538;2022-10-31T00:39:52;11.90;99.90
7516;DHT22;3799;47.184;8.538;2022-10-31T00:42:18;11.90;99.90
7516;DHT22;3799;47.184;8.538;2022-10-31T00:44:43;11.80;99.90
7516;DHT22;3799;47.184;8.538;2022-10-31T00:47:09;11.60;99.90
7516;DHT22;3799;47.184;8.538;2022-10-31T00:49:35;11.50;99.90
7516;DHT22;3799;47.184;8.538;2022-10-31T00:52:03;11.80;99.90
7516;DHT22;3799;47.184;8.538;2022-10-31T00:54:29;11.70;99.90
7516;DHT22;3799;47.184;8.538;2022-10-31T00:56:56;11.50;99.90
7516;DHT22;3799;47.184;8.538;2022-10-31T00:59:22;11.70;99.90
7516;DHT22;3799;47.184;8.538;2022-10-31T01:01:48;11.70;99.90
7516;DHT22;3799;47.184;8.538;2022-10-31T01:04:14;11.70;99.90
7516;DHT22;3799;47.184;8.538;2022-10-31T01:06:40;11.70;99.90
7516;DHT22;3799;47.184;8.538;2022-10-31T01:09:06;11.80;99.90
7516;DHT22;3799;47.184;8.538;2022-10-31T01:11:31;11.70;99.90
7516;DHT22;3799;47.184;8.538;2022-10-31T01:13:57;11.60;99.90
7516;DHT22;3799;47.184;8.538;2022-10-31T01:16:23;11.50;99.90
7516;DHT22;3799;47.184;8.538;2022-10-31T01:18:50;11.50;99.90
7516;DHT22;3799;47.184;8.538;2022-10-31T01:21:17;11.50;99.90
7516;DHT22;3799;47.184;8.538;2022-10-31T01:23:43;11.60;99.90
7516;DHT22;3799;47.184;8.538;2022-10-31T01:26:19;11.40;99.90
7516;DHT22;3799;47.184;8.538;2022-10-31T01:28:49;11.60;99.90
7516;DHT22;3799;47.184;8.538;2022-10-31T01:31:16;11.40;99.90
7516;DHT22;3799;47.184;8.538;2022-10-31T01:33:42;11.50;99.90
7516;DHT22;3799;47.184;8.538;2022-10-31T01:36:16;11.60;99.90
7516;DHT22;3799;47.184;8.538;2022-10-31T01:38:42;11.70;99.90
7516;DHT22;3799;47.184;8.538;2022-10-31T01:41:09;11.80;99.90
7516;DHT22;3799;47.184;8.538;2022-10-31T01:43:45;11.70;99.90
7516;DHT22;3799;47.184;8.538;2022-10-31T01:46:11;11.30;99.90
7516;DHT22;3799;47.184;8.538;2022-10-31T01:48:37;11.50;99.90
7516;DHT22;3799;47.184;8.538;2022-10-31T01:51:04;11.40;99.90
7516;DHT22;3799;47.184;8.538;2022-10-31T01:53:31;11.50;99.90
7516;DHT22;3799;47.184;8.538;2022-10-31T01:55:57;11.30;99.90
7516;DHT22;3799;47.184;8.538;2022-10-31T01:58:24;11.40;99.90
7516;DHT22;3799;47.184;8.538;2022-10-31T02:00:51;11.40;99.90
7516;DHT22;3799;47.184;8.538;2022-10-31T02:03:19;11.50;99.90
7516;DHT22;3799;47.184;8.538;2022-10-31T02:05:45;11.10;99.90
7516;DHT22;3799;47.184;8.538;2022-10-31T02:08:28;11.20;99.90
7516;DHT22;3799;47.184;8.538;2022-10-31T02:10:54;11.20;99.90
7516;DHT22;3799;47.184;8.538;2022-10-31T02:13:24;11.10;99.90
7516;DHT22;3799;47.184;8.538;2022-10-31T02:15:55;11.10;99.90
7516;DHT22;3799;47.184;8.538;2022-10-31T02:18:20;11.30;99.90
7516;DHT22;3799;47.184;8.538;2022-10-31T02:36:04;10.90;99.90
7516;DHT22;3799;47.184;8.538;2022-10-31T02:38:37;11.10;99.90
7516;DHT22;3799;47.184;8.538;2022-10-31T02:41:09;11.10;99.90
7516;DHT22;3799;47.184;8.538;2022-10-31T02:46:13;11.00;99.90
7516;DHT22;3799;47.184;8.538;2022-10-31T02:48:40;10.90;99.90
7516;DHT22;3799;47.184;8.538;2022-10-31T02:51:07;10.80;99.90
7516;DHT22;3799;47.184;8.538;2022-10-31T02:53:34;10.80;99.90
7516;DHT22;3799;47.184;8.538;2022-10-31T02:58:26;11.00;99.90
7516;DHT22;3799;47.184;8.538;2022-10-31T03:08:50;10.60;99.90
7516;DHT22;3799;47.184;8.538;2022-10-31T03:11:16;10.50;99.90
7516;DHT22;3799;47.184;8.538;2022-10-31T03:13:48;10.60;99.90
7516;DHT22;3799;47.184;8.538;2022-10-31T03:19:01;10.60;99.90
7516;DHT22;3799;47.184;8.538;2022-10-31T03:21:48;10.90;99.90
7516;DHT22;3799;47.184;8.538;2022-10-31T03:24:15;10.80;99.90
7516;DHT22;3799;47.184;8.538;2022-10-31T03:26:46;11.00;99.90
7516;DHT22;3799;47.184;8.538;2022-10-31T03:29:13;10.70;99.90
7516;DHT22;3799;47.184;8.538;2022-10-31T03:31:59;10.70;99.90
7516;DHT22;3799;47.184;8.538;2022-10-31T03:34:26;10.60;99.90
7516;DHT22;3799;47.184;8.538;2022-10-31T03:36:54;10.70;99.90
7516;DHT22;3799;47.184;8.538;2022-10-31T03:39:20;10.60;99.90
7516;DHT22;3799;47.184;8.538;2022-10-31T03:41:53;10.80;99.90
7516;DHT22;3799;47.184;8.538;2022-10-31T03:44:20;10.70;99.90
7516;DHT22;3799;47.184;8.538;2022-10-31T03:46:47;11.00;99.90
7516;DHT22;3799;47.184;8.538;2022-10-31T03:49:13;10.80;99.90
7516;DHT22;3799;47.184;8.538;2022-10-31T03:51:43;10.80;99.90
7516;DHT22;3799;47.184;8.538;2022-10-31T03:56:36;10.90;99.90
7516;DHT22;3799;47.184;8.538;2022-10-31T04:01:32;10.90;99.90
7516;DHT22;3799;47.184;8.538;2022-10-31T04:04:00;10.70;99.90
7516;DHT22;3799;47.184;8.538;2022-10-31T04:06:26;10.90;99.90
7516;DHT22;3799;47.184;8.538;2022-10-31T04:08:57;10.90;99.90
7516;DHT22;3799;47.184;8.538;2022-10-31T04:11:25;10.70;99.90
7516;DHT22;3799;47.184;8.538;2022-10-31T04:13:52;10.70;99.90
7516;DHT22;3799;47.184;8.538;2022-10-31T04:16:19;10.60;99.90
7516;DHT22;3799;47.184;8.538;2022-10-31T04:18:45;10.80;99.90
7516;DHT22;3799;47.184;8.538;2022-10-31T04:21:10;10.70;99.90
7516;DHT22;3799;47.184;8.538;2022-10-31T04:23:36;10.60;99.90
7516;DHT22;3799;47.184;8.538;2022-10-31T04:26:02;10.70;99.90
7516;DHT22;3799;47.184;8.538;2022-10-31T04:28:28;10.60;99.90
7516;DHT22;3799;47.184;8.538;2022-10-31T04:30:54;10.50;99.90
7516;DHT22;3799;47.184;8.538;2022-10-31T04:33:19;10.50;99.90
7516;DHT22;3799;47.184;8.538;2022-10-31T04:35:45;10.40;99.90
7516;DHT22;3799;47.184;8.538;2022-10-31T04:38:14;10.40;99.90
7516;DHT22;3799;47.184;8.538;2022-10-31T04:40:40;10.40;99.90
7516;DHT22;3799;47.184;8.538;2022-10-31T04:43:06;10.30;99.90
7516;DHT22;3799;47.184;8.538;2022-10-31T04:45:31;10.40;99.90
7516;DHT22;3799;47.184;8.538;2022-10-31T04:47:57;10.10;99.90
7516;DHT22;3799;47.184;8.538;2022-10-31T04:50:23;10.30;99.90
7516;DHT22;3799;47.184;8.538;2022-10-31T04:52:48;10.10;99.90
7516;DHT22;3799;47.184;8.538;2022-10-31T04:55:14;10.30;99.90
7516;DHT22;3799;47.184;8.538;2022-10-31T04:57:40;10.20;99.90
7516;DHT22;3799;47.184;8.538;2022-10-31T05:00:07;10.30;99.90
7516;DHT22;3799;47.184;8.538;2022-10-31T05:02:33;10.30;99.90
7516;DHT22;3799;47.184;8.538;2022-10-31T05:04:59;10.40;99.90
7516;DHT22;3799;47.184;8.538;2022-10-31T05:07:25;10.20;99.90
7516;DHT22;3799;47.184;8.538;2022-10-31T05:09:50;10.00;99.90
7516;DHT22;3799;47.184;8.538;2022-10-31T05:12:16;10.30;99.90
7516;DHT22;3799;47.184;8.538;2022-10-31T05:14:42;10.30;99.90
7516;DHT22;3799;47.184;8.538;2022-10-31T05:17:08;10.20;99.90
7516;DHT22;3799;47.184;8.538;2022-10-31T05:19:33;10.10;99.90
7516;DHT22;3799;47.184;8.538;2022-10-31T05:21:59;10.30;99.90
7516;DHT22;3799;47.184;8.538;2022-10-31T05:24:25;10.30;99.90
7516;DHT22;3799;47.184;8.538;2022-10-31T05:26:51;10.30;99.90
7516;DHT22;3799;47.184;8.538;2022-10-31T05:29:16;10.30;99.90
7516;DHT22;3799;47.184;8.538;2022-10-31T05:31:42;10.00;99.90
7516;DHT22;3799;47.184;8.538;2022-10-31T05:34:07;10.20;99.90
7516;DHT22;3799;47.184;8.538;2022-10-31T05:36:33;10.20;99.90
7516;DHT22;3799;47.184;8.538;2022-10-31T05:39:02;10.20;99.90
7516;DHT22;3799;47.184;8.538;2022-10-31T05:41:27;10.40;99.90
7516;DHT22;3799;47.184;8.538;2022-10-31T05:43:55;10.20;99.90
7516;DHT22;3799;47.184;8.538;2022-10-31T05:46:21;10.10;99.90
7516;DHT22;3799;47.184;8.538;2022-10-31T05:48:47;10.10;99.90
7516;DHT22;3799;47.184;8.538;2022-10-31T05:51:13;10.20;99.90
7516;DHT22;3799;47.184;8.538;2022-10-31T05:53:39;10.10;99.90
7516;DHT22;3799;47.184;8.538;2022-10-31T05:56:05;10.20;99.90
7516;DHT22;3799;47.184;8.538;2022-10-31T05:58:30;10.20;99.90
7516;DHT22;3799;47.184;8.538;2022-10-31T06:00:56;10.20;99.90
7516;DHT22;3799;47.184;8.538;2022-10-31T06:03:21;10.20;99.90
7516;DHT22;3799;47.184;8.538;2022-10-31T06:05:49;10.10;99.90
7516;DHT22;3799;47.184;8.538;2022-10-31T06:08:15;10.40;99.90
7516;DHT22;3799;47.184;8.538;2022-10-31T06:10:41;10.00;99.90
7516;DHT22;3799;47.184;8.538;2022-10-31T06:13:06;10.10;99.90
7516;DHT22;3799;47.184;8.538;2022-10-31T06:15:32;10.30;99.90
7516;DHT22;3799;47.184;8.538;2022-10-31T06:17:59;10.20;99.90
7516;DHT22;3799;47.184;8.538;2022-10-31T06:20:25;10.20;99.90
7516;DHT22;3799;47.184;8.538;2022-10-31T06:22:50;10.40;99.90
7516;DHT22;3799;47.184;8.538;2022-10-31T06:25:16;10.70;99.90
7516;DHT22;3799;47.184;8.538;2022-10-31T06:27:41;10.70;99.90
7516;DHT22;3799;47.184;8.538;2022-10-31T06:30:07;10.90;99.90
7516;DHT22;3799;47.184;8.538;2022-10-31T06:32:33;10.80;99.90
7516;DHT22;3799;47.184;8.538;2022-10-31T06:34:59;11.10;99.90
7516;DHT22;3799;47.184;8.538;2022-10-31T06:37:24;11.40;99.90
7516;DHT22;3799;47.184;8.538;2022-10-31T06:39:50;11.30;99.90
7516;DHT22;3799;47.184;8.538;2022-10-31T06:42:16;11.60;99.90
7516;DHT22;3799;47.184;8.538;2022-10-31T06:44:41;11.40;99.90
7516;DHT22;3799;47.184;8.538;2022-10-31T06:47:07;11.70;99.90
7516;DHT22;3799;47.184;8.538;2022-10-31T06:49:33;11.60;99.90
7516;DHT22;3799;47.184;8.538;2022-10-31T06:51:58;11.70;99.90
7516;DHT22;3799;47.184;8.538;2022-10-31T06:54:24;11.80;99.90
7516;DHT22;3799;47.184;8.538;2022-10-31T06:56:50;11.90;99.90
7516;DHT22;3799;47.184;8.538;2022-10-31T06:59:15;11.80;99.90
7516;DHT22;3799;47.184;8.538;2022-10-31T07:01:42;11.90;99.90
7516;DHT22;3799;47.184;8.538;2022-10-31T07:04:09;11.50;99.90
7516;DHT22;3799;47.184;8.538;2022-10-31T07:06:34;11.60;99.90
7516;DHT22;3799;47.184;8.538;2022-10-31T07:09:00;11.50;99.90
7516;DHT22;3799;47.184;8.538;2022-10-31T07:11:31;11.20;99.90
7516;DHT22;3799;47.184;8.538;2022-10-31T07:13:57;10.90;99.90
7516;DHT22;3799;47.184;8.538;2022-10-31T07:16:23;11.10;99.90
7516;DHT22;3799;47.184;8.538;2022-10-31T07:18:49;10.70;99.90
7516;DHT22;3799;47.184;8.538;2022-10-31T07:21:30;10.80;99.90
7516;DHT22;3799;47.184;8.538;2022-10-31T07:23:55;10.50;99.90
7516;DHT22;3799;47.184;8.538;2022-10-31T07:26:22;10.90;99.90
7516;DHT22;3799;47.184;8.538;2022-10-31T07:28:47;10.80;99.90
7516;DHT22;3799;47.184;8.538;2022-10-31T07:31:19;10.80;99.90
7516;DHT22;3799;47.184;8.538;2022-10-31T07:33:45;10.70;99.90
7516;DHT22;3799;47.184;8.538;2022-10-31T07:36:14;10.80;99.90
7516;DHT22;3799;47.184;8.538;2022-10-31T07:38:43;10.80;99.90
7516;DHT22;3799;47.184;8.538;2022-10-31T07:41:08;10.90;99.90
7516;DHT22;3799;47.184;8.538;2022-10-31T07:43:35;10.70;99.90
7516;DHT22;3799;47.184;8.538;2022-10-31T07:46:01;10.90;99.90
7516;DHT22;3799;47.184;8.538;2022-10-31T07:48:29;10.70;99.90
7516;DHT22;3799;47.184;8.538;2022-10-31T07:50:55;10.80;99.90
7516;DHT22;3799;47.184;8.538;2022-10-31T07:53:21;11.00;99.90
7516;DHT22;3799;47.184;8.538;2022-10-31T07:55:47;11.00;99.90
7516;DHT22;3799;47.184;8.538;2022-10-31T07:58:14;11.00;99.90
7516;DHT22;3799;47.184;8.538;2022-10-31T08:00:41;10.90;99.90
7516;DHT22;3799;47.184;8.538;2022-10-31T08:03:11;10.90;99.90
7516;DHT22;3799;47.184;8.538;2022-10-31T08:05:37;11.20;99.90
7516;DHT22;3799;47.184;8.538;2022-10-31T08:08:06;11.10;99.90
7516;DHT22;3799;47.184;8.538;2022-10-31T08:10:32;11.20;99.90
7516;DHT22;3799;47.184;8.538;2022-10-31T08:12:59;11.20;99.90
7516;DHT22;3799;47.184;8.538;2022-10-31T08:15:25;11.30;99.90
7516;DHT22;3799;47.184;8.538;2022-10-31T08:17:52;11.40;99.90
7516;DHT22;3799;47.184;8.538;2022-10-31T08:20:18;11.60;99.90
7516;DHT22;3799;47.184;8.538;2022-10-31T08:22:52;11.90;99.90
7516;DHT22;3799;47.184;8.538;2022-10-31T08:25:18;11.90;99.90
7516;DHT22;3799;47.184;8.538;2022-10-31T08:27:48;11.80;99.90
7516;DHT22;3799;47.184;8.538;2022-10-31T08:30:14;11.80;99.90
7516;DHT22;3799;47.184;8.538;2022-10-31T08:32:39;12.10;99.90
7516;DHT22;3799;47.184;8.538;2022-10-31T08:35:07;12.10;99.90
7516;DHT22;3799;47.184;8.538;2022-10-31T08:37:33;12.20;99.90
7516;DHT22;3799;47.184;8.538;2022-10-31T08:40:01;12.10;99.90
7516;DHT22;3799;47.184;8.538;2022-10-31T08:42:27;12.10;99.90
7516;DHT22;3799;47.184;8.538;2022-10-31T08:44:53;12.00;99.90
7516;DHT22;3799;47.184;8.538;2022-10-31T08:47:19;12.00;99.90
7516;DHT22;3799;47.184;8.538;2022-10-31T08:49:45;12.20;99.90
7516;DHT22;3799;47.184;8.538;2022-10-31T08:52:11;12.20;99.90
7516;DHT22;3799;47.184;8.538;2022-10-31T08:54:37;12.50;99.90
7516;DHT22;3799;47.184;8.538;2022-10-31T08:57:03;12.50;99.90
7516;DHT22;3799;47.184;8.538;2022-10-31T08:59:29;12.30;99.90
7516;DHT22;3799;47.184;8.538;2022-10-31T09:01:55;12.70;99.90
7516;DHT22;3799;47.184;8.538;2022-10-31T09:04:20;12.90;99.90
7516;DHT22;3799;47.184;8.538;2022-10-31T09:06:57;12.70;99.90
7516;DHT22;3799;47.184;8.538;2022-10-31T09:09:23;12.90;99.90
7516;DHT22;3799;47.184;8.538;2022-10-31T09:11:49;13.00;99.90
7516;DHT22;3799;47.184;8.538;2022-10-31T09:14:15;12.90;99.90
7516;DHT22;3799;47.184;8.538;2022-10-31T09:16:41;13.40;99.90
7516;DHT22;3799;47.184;8.538;2022-10-31T09:19:07;13.30;99.90
7516;DHT22;3799;47.184;8.538;2022-10-31T09:21:33;13.30;99.90
7516;DHT22;3799;47.184;8.538;2022-10-31T09:23:59;13.40;99.90
7516;DHT22;3799;47.184;8.538;2022-10-31T09:26:25;13.60;99.90
7516;DHT22;3799;47.184;8.538;2022-10-31T09:28:51;13.90;99.90
7516;DHT22;3799;47.184;8.538;2022-10-31T09:31:17;13.80;99.90
7516;DHT22;3799;47.184;8.538;2022-10-31T09:33:43;14.30;99.90
7516;DHT22;3799;47.184;8.538;2022-10-31T09:36:09;14.10;99.90
7516;DHT22;3799;47.184;8.538;2022-10-31T09:38:35;14.20;99.90
7516;DHT22;3799;47.184;8.538;2022-10-31T09:41:05;14.10;99.90
7516;DHT22;3799;47.184;8.538;2022-10-31T10:30:13;14.50;99.90
7516;DHT22;3799;47.184;8.538;2022-10-31T10:32:53;14.60;99.90
7516;DHT22;3799;47.184;8.538;2022-10-31T10:37:50;14.60;99.90
7516;DHT22;3799;47.184;8.538;2022-10-31T10:40:22;14.60;99.90
7516;DHT22;3799;47.184;8.538;2022-10-31T10:51:46;14.70;99.90
7516;DHT22;3799;47.184;8.538;2022-10-31T10:59:32;14.70;99.90
7516;DHT22;3799;47.184;8.538;2022-10-31T11:02:03;14.70;99.90
7516;DHT22;3799;47.184;8.538;2022-10-31T11:04:31;14.60;99.90
7516;DHT22;3799;47.184;8.538;2022-10-31T11:09:28;14.50;99.90
7516;DHT22;3799;47.184;8.538;2022-10-31T11:11:57;14.70;99.90
7516;DHT22;3799;47.184;8.538;2022-10-31T11:14:24;14.50;99.90
7516;DHT22;3799;47.184;8.538;2022-10-31T11:16:54;14.50;99.90
7516;DHT22;3799;47.184;8.538;2022-10-31T11:19:24;14.70;99.90
7516;DHT22;3799;47.184;8.538;2022-10-31T11:21:50;14.60;99.90
7516;DHT22;3799;47.184;8.538;2022-10-31T11:24:17;14.70;99.90
7516;DHT22;3799;47.184;8.538;2022-10-31T11:26:44;14.90;99.90
7516;DHT22;3799;47.184;8.538;2022-10-31T11:29:21;14.90;99.90
7516;DHT22;3799;47.184;8.538;2022-10-31T11:31:52;15.10;99.90
7516;DHT22;3799;47.184;8.538;2022-10-31T11:34:25;15.30;99.90
7516;DHT22;3799;47.184;8.538;2022-10-31T11:36:52;15.80;99.90
7516;DHT22;3799;47.184;8.538;2022-10-31T11:39:19;15.90;99.90
7516;DHT22;3799;47.184;8.538;2022-10-31T11:41:46;16.30;99.90
7516;DHT22;3799;47.184;8.538;2022-10-31T11:44:13;16.40;99.90
7516;DHT22;3799;47.184;8.538;2022-10-31T11:46:41;16.80;99.90
7516;DHT22;3799;47.184;8.538;2022-10-31T11:49:13;17.10;99.90
7516;DHT22;3799;47.184;8.538;2022-10-31T11:51:40;17.50;99.90
7516;DHT22;3799;47.184;8.538;2022-10-31T11:54:14;17.70;99.90
7516;DHT22;3799;47.184;8.538;2022-10-31T11:56:41;17.90;99.90
7516;DHT22;3799;47.184;8.538;2022-10-31T11:59:17;18.00;99.90
7516;DHT22;3799;47.184;8.538;2022-10-31T12:01:50;18.10;99.90
7516;DHT22;3799;47.184;8.538;2022-10-31T12:04:17;18.20;99.90
7516;DHT22;3799;47.184;8.538;2022-10-31T12:06:45;18.40;99.90
7516;DHT22;3799;47.184;8.538;2022-10-31T12:09:22;18.50;99.90
7516;DHT22;3799;47.184;8.538;2022-10-31T12:12:11;18.50;99.90
7516;DHT22;3799;47.184;8.538;2022-10-31T12:19:51;19.00;99.90
7516;DHT22;3799;47.184;8.538;2022-10-31T12:25:08;19.40;99.90
7516;DHT22;3799;47.184;8.538;2022-10-31T12:30:28;19.90;99.90
7516;DHT22;3799;47.184;8.538;2022-10-31T12:33:19;20.20;99.40
7516;DHT22;3799;47.184;8.538;2022-10-31T12:35:55;20.40;98.20
7516;DHT22;3799;47.184;8.538;2022-10-31T12:43:45;20.70;94.30
7516;DHT22;3799;47.184;8.538;2022-10-31T12:46:22;20.80;93.10
7516;DHT22;3799;47.184;8.538;2022-10-31T12:51:28;21.10;92.00
7516;DHT22;3799;47.184;8.538;2022-10-31T12:56:24;21.50;90.00
7516;DHT22;3799;47.184;8.538;2022-10-31T12:58:53;21.70;88.60
7516;DHT22;3799;47.184;8.538;2022-10-31T13:03:53;22.10;86.70
7516;DHT22;3799;47.184;8.538;2022-10-31T13:06:29;22.30;84.70
7516;DHT22;3799;47.184;8.538;2022-10-31T13:09:06;22.50;83.30
7516;DHT22;3799;47.184;8.538;2022-10-31T13:11:43;22.60;82.00
7516;DHT22;3799;47.184;8.538;2022-10-31T13:16:40;22.70;81.80
7516;DHT22;3799;47.184;8.538;2022-10-31T13:19:18;22.90;79.50
7516;DHT22;3799;47.184;8.538;2022-10-31T13:24:16;23.10;76.70
7516;DHT22;3799;47.184;8.538;2022-10-31T13:26:45;23.10;75.50
7516;DHT22;3799;47.184;8.538;2022-10-31T13:29:17;23.20;74.70
7516;DHT22;3799;47.184;8.538;2022-10-31T13:31:44;23.30;73.90
7516;DHT22;3799;47.184;8.538;2022-10-31T13:41:51;24.00;68.30
7516;DHT22;3799;47.184;8.538;2022-10-31T13:44:20;24.00;69.30
7516;DHT22;3799;47.184;8.538;2022-10-31T13:46:47;24.10;68.50
7516;DHT22;3799;47.184;8.538;2022-10-31T13:49:46;24.20;68.20
7516;DHT22;3799;47.184;8.538;2022-10-31T13:52:14;24.40;67.50
7516;DHT22;3799;47.184;8.538;2022-10-31T13:54:48;24.70;65.80
7516;DHT22;3799;47.184;8.538;2022-10-31T13:57:19;25.10;63.50
7516;DHT22;3799;47.184;8.538;2022-10-31T13:59:49;25.80;61.70
7516;DHT22;3799;47.184;8.538;2022-10-31T14:02:16;26.80;58.70
7516;DHT22;3799;47.184;8.538;2022-10-31T14:04:50;27.70;56.40
7516;DHT22;3799;47.184;8.538;2022-10-31T14:07:18;28.50;54.70
7516;DHT22;3799;47.184;8.538;2022-10-31T14:09:54;29.50;52.70
7516;DHT22;3799;47.184;8.538;2022-10-31T14:12:29;30.40;50.70
7516;DHT22;3799;47.184;8.538;2022-10-31T14:14:56;31.10;48.60
7516;DHT22;3799;47.184;8.538;2022-10-31T14:17:25;31.60;46.60
7516;DHT22;3799;47.184;8.538;2022-10-31T14:22:41;31.50;45.60
7516;DHT22;3799;47.184;8.538;2022-10-31T14:27:52;32.30;44.60
7516;DHT22;3799;47.184;8.538;2022-10-31T14:30:19;32.50;43.70
7516;DHT22;3799;47.184;8.538;2022-10-31T14:32:48;32.40;43.20
7516;DHT22;3799;47.184;8.538;2022-10-31T14:35:15;31.70;43.80
7516;DHT22;3799;47.184;8.538;2022-10-31T14:37:53;29.90;44.60
7516;DHT22;3799;47.184;8.538;2022-10-31T14:51:10;27.30;49.10
7516;DHT22;3799;47.184;8.538;2022-10-31T14:53:44;28.70;47.80
7516;DHT22;3799;47.184;8.538;2022-10-31T14:56:11;29.70;46.30
7516;DHT22;3799;47.184;8.538;2022-10-31T14:58:38;30.40;45.10
7516;DHT22;3799;47.184;8.538;2022-10-31T15:01:05;30.70;44.20
7516;DHT22;3799;47.184;8.538;2022-10-31T15:03:33;30.90;43.90
7516;DHT22;3799;47.184;8.538;2022-10-31T15:06:00;30.90;43.50
7516;DHT22;3799;47.184;8.538;2022-10-31T15:10:53;30.80;43.20
7516;DHT22;3799;47.184;8.538;2022-10-31T15:13:19;30.70;43.30
7516;DHT22;3799;47.184;8.538;2022-10-31T15:15:47;29.60;44.00
7516;DHT22;3799;47.184;8.538;2022-10-31T15:18:17;28.80;45.10
7516;DHT22;3799;47.184;8.538;2022-10-31T15:20:44;28.00;45.50
7516;DHT22;3799;47.184;8.538;2022-10-31T15:23:11;27.10;46.60
7516;DHT22;3799;47.184;8.538;2022-10-31T15:25:42;25.80;48.40
7516;DHT22;3799;47.184;8.538;2022-10-31T15:28:19;24.50;50.20
7516;DHT22;3799;47.184;8.538;2022-10-31T15:30:50;23.40;52.00
7516;DHT22;3799;47.184;8.538;2022-10-31T15:33:18;22.60;54.60
7516;DHT22;3799;47.184;8.538;2022-10-31T15:36:22;22.00;56.00
7516;DHT22;3799;47.184;8.538;2022-10-31T15:38:39;21.50;57.40
7516;DHT22;3799;47.184;8.538;2022-10-31T15:41:17;21.00;58.30
7516;DHT22;3799;47.184;8.538;2022-10-31T15:43:44;20.50;59.50
7516;DHT22;3799;47.184;8.538;2022-10-31T15:46:11;20.00;63.30
7516;DHT22;3799;47.184;8.538;2022-10-31T15:48:37;19.60;67.00
7516;DHT22;3799;47.184;8.538;2022-10-31T15:51:05;19.20;73.00
7516;DHT22;3799;47.184;8.538;2022-10-31T15:53:41;18.80;81.20
7516;DHT22;3799;47.184;8.538;2022-10-31T15:56:19;18.50;90.30
7516;DHT22;3799;47.184;8.538;2022-10-31T15:58:52;18.30;94.10
7516;DHT22;3799;47.184;8.538;2022-10-31T16:01:28;18.00;97.00
7516;DHT22;3799;47.184;8.538;2022-10-31T16:06:41;17.60;99.90
7516;DHT22;3799;47.184;8.538;2022-10-31T16:09:22;17.40;99.90
7516;DHT22;3799;47.184;8.538;2022-10-31T16:11:49;17.20;99.90
7516;DHT22;3799;47.184;8.538;2022-10-31T16:14:15;17.10;99.90
7516;DHT22;3799;47.184;8.538;2022-10-31T16:16:43;16.90;99.90
7516;DHT22;3799;47.184;8.538;2022-10-31T16:19:22;16.70;99.90
7516;DHT22;3799;47.184;8.538;2022-10-31T16:21:54;16.50;99.90
7516;DHT22;3799;47.184;8.538;2022-10-31T16:27:20;16.00;99.90
7516;DHT22;3799;47.184;8.538;2022-10-31T16:29:51;15.60;99.90
7516;DHT22;3799;47.184;8.538;2022-10-31T16:37:33;15.20;99.90
7516;DHT22;3799;47.184;8.538;2022-10-31T16:39:59;15.30;99.90
7516;DHT22;3799;47.184;8.538;2022-10-31T16:42:37;15.40;99.90
7516;DHT22;3799;47.184;8.538;2022-10-31T16:45:04;15.10;99.90
7516;DHT22;3799;47.184;8.538;2022-10-31T16:47:30;15.20;99.90
7516;DHT22;3799;47.184;8.538;2022-10-31T16:49:56;15.00;99.90
7516;DHT22;3799;47.184;8.538;2022-10-31T16:52:25;14.90;99.90
7516;DHT22;3799;47.184;8.538;2022-10-31T16:54:51;14.90;99.90
7516;DHT22;3799;47.184;8.538;2022-10-31T16:57:18;14.60;99.90
7516;DHT22;3799;47.184;8.538;2022-10-31T16:59:46;14.70;99.90
7516;DHT22;3799;47.184;8.538;2022-10-31T17:02:14;14.60;99.90
7516;DHT22;3799;47.184;8.538;2022-10-31T17:04:40;14.60;99.90
7516;DHT22;3799;47.184;8.538;2022-10-31T17:07:06;14.70;99.90
7516;DHT22;3799;47.184;8.538;2022-10-31T17:09:33;14.50;99.90
7516;DHT22;3799;47.184;8.538;2022-10-31T17:11:58;14.70;99.90
7516;DHT22;3799;47.184;8.538;2022-10-31T17:14:24;14.30;99.90
7516;DHT22;3799;47.184;8.538;2022-10-31T17:16:50;14.30;99.90
7516;DHT22;3799;47.184;8.538;2022-10-31T17:19:16;14.30;99.90
7516;DHT22;3799;47.184;8.538;2022-10-31T17:21:42;14.30;99.90
7516;DHT22;3799;47.184;8.538;2022-10-31T17:24:11;14.50;99.90
7516;DHT22;3799;47.184;8.538;2022-10-31T17:26:36;14.30;99.90
7516;DHT22;3799;47.184;8.538;2022-10-31T17:29:02;14.20;99.90
7516;DHT22;3799;47.184;8.538;2022-10-31T17:31:29;14.20;99.90
7516;DHT22;3799;47.184;8.538;2022-10-31T17:33:56;14.20;99.90
7516;DHT22;3799;47.184;8.538;2022-10-31T17:36:21;14.00;99.90
7516;DHT22;3799;47.184;8.538;2022-10-31T17:38:49;13.80;99.90
7516;DHT22;3799;47.184;8.538;2022-10-31T17:41:15;14.00;99.90
7516;DHT22;3799;47.184;8.538;2022-10-31T17:43:41;13.90;99.90
7516;DHT22;3799;47.184;8.538;2022-10-31T17:46:07;14.00;99.90
7516;DHT22;3799;47.184;8.538;2022-10-31T17:48:33;13.80;99.90
7516;DHT22;3799;47.184;8.538;2022-10-31T17:51:00;14.00;99.90
7516;DHT22;3799;47.184;8.538;2022-10-31T17:53:29;14.10;99.90
7516;DHT22;3799;47.184;8.538;2022-10-31T17:55:59;14.10;99.90
7516;DHT22;3799;47.184;8.538;2022-10-31T17:58:25;13.90;99.90
7516;DHT22;3799;47.184;8.538;2022-10-31T18:00:50;13.70;99.90
7516;DHT22;3799;47.184;8.538;2022-10-31T18:03:16;13.90;99.90
7516;DHT22;3799;47.184;8.538;2022-10-31T18:05:50;13.90;99.90
7516;DHT22;3799;47.184;8.538;2022-10-31T18:08:15;13.90;99.90
7516;DHT22;3799;47.184;8.538;2022-10-31T18:10:41;13.70;99.90
7516;DHT22;3799;47.184;8.538;2022-10-31T18:13:06;13.80;99.90
7516;DHT22;3799;47.184;8.538;2022-10-31T18:15:32;13.80;99.90
7516;DHT22;3799;47.184;8.538;2022-10-31T18:17:58;13.80;99.90
7516;DHT22;3799;47.184;8.538;2022-10-31T18:20:23;13.60;99.90
7516;DHT22;3799;47.184;8.538;2022-10-31T18:22:49;13.80;99.90
7516;DHT22;3799;47.184;8.538;2022-10-31T18:25:15;13.90;99.90
7516;DHT22;3799;47.184;8.538;2022-10-31T18:27:40;14.00;99.90
7516;DHT22;3799;47.184;8.538;2022-10-31T18:30:06;13.90;99.90
7516;DHT22;3799;47.184;8.538;2022-10-31T18:32:32;14.00;99.90
7516;DHT22;3799;47.184;8.538;2022-10-31T18:34:58;13.90;99.90
7516;DHT22;3799;47.184;8.538;2022-10-31T18:37:23;14.00;99.90
7516;DHT22;3799;47.184;8.538;2022-10-31T18:39:49;14.00;99.90
7516;DHT22;3799;47.184;8.538;2022-10-31T18:42:15;14.10;99.90
7516;DHT22;3799;47.184;8.538;2022-10-31T18:44:40;14.20;99.90
7516;DHT22;3799;47.184;8.538;2022-10-31T18:47:06;14.10;99.90
7516;DHT22;3799;47.184;8.538;2022-10-31T18:49:32;14.20;99.90
7516;DHT22;3799;47.184;8.538;2022-10-31T18:51:58;14.00;99.90
7516;DHT22;3799;47.184;8.538;2022-10-31T18:54:24;13.90;99.90